sensor_id;sensor_type;location;lat;lon;timestamp;P1;durP1;ratioP1;P2;durP2;ratioP2
76752;SDS011;65687;51.308;16.916;2023-07-13T00:03:20;4.70;;;3.50;;
76752;SDS011;65687;51.308;16.916;2023-07-13T00:08:22;4.60;;;3.10;;
76752;SDS011;65687;51.308;16.916;2023-07-13T00:13:24;5.50;;;3.70;;
76752;SDS011;65687;51.308;16.916;2023-07-13T00:18:25;5.30;;;3.70;;
76752;SDS011;65687;51.308;16.916;2023-07-13T00:23:27;4.50;;;3.60;;
76752;SDS011;65687;51.308;16.916;2023-07-13T00:28:28;4.70;;;3.50;;
76752;SDS011;65687;51.308;16.916;2023-07-13T00:33:30;4.10;;;3.00;;
76752;SDS011;65687;51.308;16.916;2023-07-13T00:38:31;4.10;;;3.50;;
76752;SDS011;65687;51.308;16.916;2023-07-13T00:43:33;4.80;;;3.30;;
76752;SDS011;65687;51.308;16.916;2023-07-13T00:48:35;3.70;;;3.30;;
76752;SDS011;65687;51.308;16.916;2023-07-13T00:53:38;5.30;;;3.40;;
76752;SDS011;65687;51.308;16.916;2023-07-13T00:58:40;4.60;;;2.80;;
76752;SDS011;65687;51.308;16.916;2023-07-13T01:03:42;4.10;;;3.20;;
76752;SDS011;65687;51.308;16.916;2023-07-13T01:08:45;4.90;;;3.20;;
76752;SDS011;65687;51.308;16.916;2023-07-13T01:18:48;3.80;;;3.00;;
76752;SDS011;65687;51.308;16.916;2023-07-13T01:23:49;3.80;;;3.10;;
76752;SDS011;65687;51.308;16.916;2023-07-13T01:28:51;3.60;;;3.10;;
76752;SDS011;65687;51.308;16.916;2023-07-13T01:43:56;3.60;;;2.90;;
76752;SDS011;65687;51.308;16.916;2023-07-13T01:48:58;6.20;;;3.70;;
76752;SDS011;65687;51.308;16.916;2023-07-13T01:59:01;4.90;;;3.00;;
76752;SDS011;65687;51.308;16.916;2023-07-13T02:04:03;5.00;;;3.50;;
76752;SDS011;65687;51.308;16.916;2023-07-13T02:09:05;4.60;;;3.00;;
76752;SDS011;65687;51.308;16.916;2023-07-13T02:14:07;3.90;;;3.10;;
76752;SDS011;65687;51.308;16.916;2023-07-13T02:19:08;3.70;;;2.90;;
76752;SDS011;65687;51.308;16.916;2023-07-13T02:24:10;4.70;;;2.90;;
76752;SDS011;65687;51.308;16.916;2023-07-13T02:29:16;4.90;;;3.00;;
76752;SDS011;65687;51.308;16.916;2023-07-13T02:34:17;4.60;;;3.00;;
76752;SDS011;65687;51.308;16.916;2023-07-13T02:39:19;3.50;;;2.80;;
76752;SDS011;65687;51.308;16.916;2023-07-13T02:44:21;4.10;;;2.90;;
76752;SDS011;65687;51.308;16.916;2023-07-13T02:49:22;3.70;;;2.90;;
76752;SDS011;65687;51.308;16.916;2023-07-13T02:54:24;3.80;;;3.20;;
76752;SDS011;65687;51.308;16.916;2023-07-13T02:59:25;4.00;;;3.40;;
76752;SDS011;65687;51.308;16.916;2023-07-13T03:04:27;3.60;;;2.90;;
76752;SDS011;65687;51.308;16.916;2023-07-13T03:09:28;3.90;;;3.10;;
76752;SDS011;65687;51.308;16.916;2023-07-13T03:14:30;5.20;;;3.40;;
76752;SDS011;65687;51.308;16.916;2023-07-13T03:19:31;4.20;;;3.40;;
76752;SDS011;65687;51.308;16.916;2023-07-13T03:24:33;4.50;;;3.30;;
76752;SDS011;65687;51.308;16.916;2023-07-13T03:29:35;4.30;;;3.30;;
76752;SDS011;65687;51.308;16.916;2023-07-13T03:34:37;4.10;;;3.40;;
76752;SDS011;65687;51.308;16.916;2023-07-13T03:39:38;3.60;;;2.90;;
76752;SDS011;65687;51.308;16.916;2023-07-13T03:44:40;4.20;;;3.30;;
76752;SDS011;65687;51.308;16.916;2023-07-13T03:54:43;3.70;;;2.90;;
76752;SDS011;65687;51.308;16.916;2023-07-13T03:59:45;3.80;;;3.00;;
76752;SDS011;65687;51.308;16.916;2023-07-13T04:04:46;4.00;;;3.20;;
76752;SDS011;65687;51.308;16.916;2023-07-13T04:09:48;5.10;;;3.30;;
76752;SDS011;65687;51.308;16.916;2023-07-13T04:14:49;4.90;;;3.20;;
76752;SDS011;65687;51.308;16.916;2023-07-13T04:19:51;3.30;;;2.70;;
76752;SDS011;65687;51.308;16.916;2023-07-13T04:24:52;4.30;;;2.60;;
76752;SDS011;65687;51.308;16.916;2023-07-13T04:29:54;3.80;;;3.30;;
76752;SDS011;65687;51.308;16.916;2023-07-13T04:34:55;7.30;;;3.60;;
76752;SDS011;65687;51.308;16.916;2023-07-13T04:39:59;8.50;;;3.90;;
76752;SDS011;65687;51.308;16.916;2023-07-13T04:45:00;6.40;;;3.70;;
76752;SDS011;65687;51.308;16.916;2023-07-13T04:50:02;5.00;;;3.40;;
76752;SDS011;65687;51.308;16.916;2023-07-13T04:55:04;6.00;;;3.80;;
76752;SDS011;65687;51.308;16.916;2023-07-13T05:00:06;4.20;;;3.50;;
76752;SDS011;65687;51.308;16.916;2023-07-13T05:05:08;4.40;;;3.70;;
76752;SDS011;65687;51.308;16.916;2023-07-13T05:10:10;6.90;;;3.70;;
76752;SDS011;65687;51.308;16.916;2023-07-13T05:15:12;8.10;;;4.20;;
76752;SDS011;65687;51.308;16.916;2023-07-13T05:20:13;4.60;;;3.90;;
76752;SDS011;65687;51.308;16.916;2023-07-13T05:25:15;4.70;;;3.50;;
76752;SDS011;65687;51.308;16.916;2023-07-13T05:30:17;6.90;;;4.40;;
76752;SDS011;65687;51.308;16.916;2023-07-13T05:35:19;5.20;;;3.20;;
76752;SDS011;65687;51.308;16.916;2023-07-13T05:40:20;6.50;;;3.70;;
76752;SDS011;65687;51.308;16.916;2023-07-13T05:45:22;4.90;;;3.90;;
76752;SDS011;65687;51.308;16.916;2023-07-13T05:50:23;6.80;;;3.60;;
76752;SDS011;65687;51.308;16.916;2023-07-13T05:55:25;5.40;;;3.60;;
76752;SDS011;65687;51.308;16.916;2023-07-13T06:00:26;7.40;;;3.70;;
76752;SDS011;65687;51.308;16.916;2023-07-13T06:10:32;5.10;;;4.10;;
76752;SDS011;65687;51.308;16.916;2023-07-13T06:15:34;4.90;;;3.60;;
76752;SDS011;65687;51.308;16.916;2023-07-13T06:20:36;5.20;;;4.00;;
76752;SDS011;65687;51.308;16.916;2023-07-13T06:25:37;5.00;;;3.80;;
76752;SDS011;65687;51.308;16.916;2023-07-13T06:30:39;7.30;;;4.30;;
76752;SDS011;65687;51.308;16.916;2023-07-13T06:35:40;4.70;;;3.80;;
76752;SDS011;65687;51.308;16.916;2023-07-13T06:40:42;6.20;;;3.80;;
76752;SDS011;65687;51.308;16.916;2023-07-13T06:45:44;5.80;;;3.50;;
76752;SDS011;65687;51.308;16.916;2023-07-13T06:50:49;4.60;;;3.50;;
76752;SDS011;65687;51.308;16.916;2023-07-13T06:55:52;4.10;;;3.60;;
76752;SDS011;65687;51.308;16.916;2023-07-13T07:00:53;4.00;;;3.30;;
76752;SDS011;65687;51.308;16.916;2023-07-13T07:06:29;4.80;;;3.20;;
76752;SDS011;65687;51.308;16.916;2023-07-13T07:11:26;4.40;;;3.40;;
76752;SDS011;65687;51.308;16.916;2023-07-13T07:16:28;4.30;;;3.90;;
76752;SDS011;65687;51.308;16.916;2023-07-13T07:21:29;4.50;;;3.60;;
76752;SDS011;65687;51.308;16.916;2023-07-13T07:26:32;5.80;;;4.20;;
76752;SDS011;65687;51.308;16.916;2023-07-13T07:31:33;5.60;;;4.40;;
76752;SDS011;65687;51.308;16.916;2023-07-13T07:41:37;5.50;;;4.00;;
76752;SDS011;65687;51.308;16.916;2023-07-13T07:46:39;6.20;;;4.50;;
76752;SDS011;65687;51.308;16.916;2023-07-13T07:51:41;4.90;;;4.40;;
76752;SDS011;65687;51.308;16.916;2023-07-13T07:56:43;4.60;;;4.20;;
76752;SDS011;65687;51.308;16.916;2023-07-13T08:06:47;6.40;;;4.10;;
76752;SDS011;65687;51.308;16.916;2023-07-13T08:11:49;4.90;;;4.10;;
76752;SDS011;65687;51.308;16.916;2023-07-13T08:16:50;6.50;;;3.70;;
76752;SDS011;65687;51.308;16.916;2023-07-13T08:21:52;4.20;;;3.80;;
76752;SDS011;65687;51.308;16.916;2023-07-13T08:26:53;3.90;;;3.30;;
76752;SDS011;65687;51.308;16.916;2023-07-13T08:31:55;4.20;;;3.40;;
76752;SDS011;65687;51.308;16.916;2023-07-13T08:36:56;5.20;;;4.00;;
76752;SDS011;65687;51.308;16.916;2023-07-13T08:42:00;4.30;;;3.20;;
76752;SDS011;65687;51.308;16.916;2023-07-13T08:47:06;3.90;;;3.50;;
76752;SDS011;65687;51.308;16.916;2023-07-13T08:52:12;4.30;;;3.40;;
76752;SDS011;65687;51.308;16.916;2023-07-13T08:57:30;3.90;;;3.20;;
76752;SDS011;65687;51.308;16.916;2023-07-13T09:02:45;4.50;;;3.10;;
76752;SDS011;65687;51.308;16.916;2023-07-13T09:08:01;4.60;;;3.20;;
76752;SDS011;65687;51.308;16.916;2023-07-13T09:18:28;5.90;;;3.60;;
76752;SDS011;65687;51.308;16.916;2023-07-13T09:23:34;5.90;;;4.10;;
76752;SDS011;65687;51.308;16.916;2023-07-13T09:28:38;5.20;;;4.50;;
76752;SDS011;65687;51.308;16.916;2023-07-13T09:33:45;5.10;;;4.10;;
76752;SDS011;65687;51.308;16.916;2023-07-13T09:38:47;4.60;;;4.00;;
76752;SDS011;65687;51.308;16.916;2023-07-13T09:44:27;4.70;;;3.70;;
76752;SDS011;65687;51.308;16.916;2023-07-13T09:49:24;4.80;;;3.90;;
76752;SDS011;65687;51.308;16.916;2023-07-13T09:54:32;6.10;;;4.20;;
76752;SDS011;65687;51.308;16.916;2023-07-13T09:59:43;5.90;;;3.60;;
76752;SDS011;65687;51.308;16.916;2023-07-13T10:04:53;4.80;;;3.90;;
76752;SDS011;65687;51.308;16.916;2023-07-13T10:09:59;4.90;;;3.60;;
76752;SDS011;65687;51.308;16.916;2023-07-13T10:15:02;4.60;;;3.50;;
76752;SDS011;65687;51.308;16.916;2023-07-13T10:20:10;4.70;;;3.40;;
76752;SDS011;65687;51.308;16.916;2023-07-13T10:25:15;5.00;;;3.90;;
76752;SDS011;65687;51.308;16.916;2023-07-13T10:35:32;5.70;;;4.10;;
76752;SDS011;65687;51.308;16.916;2023-07-13T10:45:42;5.90;;;3.40;;
76752;SDS011;65687;51.308;16.916;2023-07-13T10:50:48;3.80;;;3.00;;
76752;SDS011;65687;51.308;16.916;2023-07-13T11:00:56;4.70;;;3.00;;
76752;SDS011;65687;51.308;16.916;2023-07-13T11:16:34;4.60;;;3.50;;
76752;SDS011;65687;51.308;16.916;2023-07-13T11:22:01;5.20;;;3.40;;
76752;SDS011;65687;51.308;16.916;2023-07-13T11:27:14;4.60;;;3.20;;
76752;SDS011;65687;51.308;16.916;2023-07-13T11:32:31;4.10;;;3.60;;
76752;SDS011;65687;51.308;16.916;2023-07-13T11:37:33;3.60;;;2.90;;
76752;SDS011;65687;51.308;16.916;2023-07-13T11:42:35;4.90;;;3.00;;
76752;SDS011;65687;51.308;16.916;2023-07-13T11:47:39;3.30;;;2.80;;
76752;SDS011;65687;51.308;16.916;2023-07-13T11:52:41;5.50;;;2.90;;
76752;SDS011;65687;51.308;16.916;2023-07-13T11:57:47;5.50;;;2.90;;
76752;SDS011;65687;51.308;16.916;2023-07-13T12:02:52;5.30;;;3.10;;
76752;SDS011;65687;51.308;16.916;2023-07-13T12:07:56;4.20;;;2.70;;
76752;SDS011;65687;51.308;16.916;2023-07-13T12:13:00;3.50;;;2.70;;
76752;SDS011;65687;51.308;16.916;2023-07-13T12:18:14;3.90;;;2.60;;
76752;SDS011;65687;51.308;16.916;2023-07-13T12:23:22;3.70;;;2.80;;
76752;SDS011;65687;51.308;16.916;2023-07-13T12:28:31;3.60;;;2.50;;
76752;SDS011;65687;51.308;16.916;2023-07-13T12:33:33;3.50;;;2.80;;
76752;SDS011;65687;51.308;16.916;2023-07-13T12:38:35;3.30;;;2.80;;
76752;SDS011;65687;51.308;16.916;2023-07-13T12:43:37;3.00;;;2.60;;
76752;SDS011;65687;51.308;16.916;2023-07-13T12:48:39;3.20;;;2.40;;
76752;SDS011;65687;51.308;16.916;2023-07-13T12:53:50;4.60;;;3.00;;
76752;SDS011;65687;51.308;16.916;2023-07-13T12:59:03;4.30;;;2.50;;
76752;SDS011;65687;51.308;16.916;2023-07-13T13:04:08;3.80;;;2.40;;
76752;SDS011;65687;51.308;16.916;2023-07-13T13:09:13;2.60;;;2.20;;
76752;SDS011;65687;51.308;16.916;2023-07-13T13:14:16;2.90;;;2.20;;
76752;SDS011;65687;51.308;16.916;2023-07-13T13:24:27;2.90;;;2.30;;
76752;SDS011;65687;51.308;16.916;2023-07-13T13:29:32;3.60;;;2.00;;
76752;SDS011;65687;51.308;16.916;2023-07-13T13:34:36;3.40;;;2.20;;
76752;SDS011;65687;51.308;16.916;2023-07-13T13:39:38;2.40;;;1.60;;
76752;SDS011;65687;51.308;16.916;2023-07-13T13:49:44;3.80;;;2.30;;
76752;SDS011;65687;51.308;16.916;2023-07-13T13:54:46;5.40;;;2.00;;
76752;SDS011;65687;51.308;16.916;2023-07-13T13:59:48;3.10;;;2.00;;
76752;SDS011;65687;51.308;16.916;2023-07-13T14:09:55;4.30;;;2.20;;
76752;SDS011;65687;51.308;16.916;2023-07-13T14:14:58;3.40;;;2.10;;
76752;SDS011;65687;51.308;16.916;2023-07-13T14:20:00;3.30;;;1.90;;
76752;SDS011;65687;51.308;16.916;2023-07-13T14:25:02;3.40;;;2.30;;
76752;SDS011;65687;51.308;16.916;2023-07-13T14:30:04;3.00;;;2.00;;
76752;SDS011;65687;51.308;16.916;2023-07-13T14:35:18;3.30;;;2.80;;
76752;SDS011;65687;51.308;16.916;2023-07-13T14:40:25;3.90;;;2.70;;
76752;SDS011;65687;51.308;16.916;2023-07-13T14:45:32;3.50;;;2.80;;
76752;SDS011;65687;51.308;16.916;2023-07-13T14:50:34;6.50;;;3.10;;
76752;SDS011;65687;51.308;16.916;2023-07-13T14:55:37;3.40;;;2.60;;
76752;SDS011;65687;51.308;16.916;2023-07-13T15:00:39;2.80;;;2.40;;
76752;SDS011;65687;51.308;16.916;2023-07-13T15:05:41;4.10;;;2.70;;
76752;SDS011;65687;51.308;16.916;2023-07-13T15:15:46;4.70;;;2.60;;
76752;SDS011;65687;51.308;16.916;2023-07-13T15:20:49;3.90;;;2.70;;
76752;SDS011;65687;51.308;16.916;2023-07-13T15:25:54;3.60;;;2.70;;
76752;SDS011;65687;51.308;16.916;2023-07-13T15:30:55;3.90;;;3.10;;
76752;SDS011;65687;51.308;16.916;2023-07-13T15:35:57;5.00;;;2.60;;
76752;SDS011;65687;51.308;16.916;2023-07-13T15:41:00;4.50;;;2.50;;
76752;SDS011;65687;51.308;16.916;2023-07-13T15:46:02;3.20;;;2.50;;
76752;SDS011;65687;51.308;16.916;2023-07-13T15:56:19;3.80;;;2.80;;
76752;SDS011;65687;51.308;16.916;2023-07-13T16:01:24;3.00;;;2.70;;
76752;SDS011;65687;51.308;16.916;2023-07-13T16:06:30;5.50;;;2.90;;
76752;SDS011;65687;51.308;16.916;2023-07-13T16:11:36;3.80;;;3.00;;
76752;SDS011;65687;51.308;16.916;2023-07-13T16:16:39;3.40;;;3.10;;
76752;SDS011;65687;51.308;16.916;2023-07-13T16:21:42;3.60;;;3.20;;
76752;SDS011;65687;51.308;16.916;2023-07-13T16:26:47;4.40;;;3.20;;
76752;SDS011;65687;51.308;16.916;2023-07-13T16:31:57;3.60;;;3.10;;
76752;SDS011;65687;51.308;16.916;2023-07-13T16:42:14;4.50;;;2.90;;
76752;SDS011;65687;51.308;16.916;2023-07-13T16:57:25;6.10;;;3.00;;
76752;SDS011;65687;51.308;16.916;2023-07-13T17:02:35;4.10;;;3.10;;
76752;SDS011;65687;51.308;16.916;2023-07-13T17:07:40;4.90;;;2.80;;
76752;SDS011;65687;51.308;16.916;2023-07-13T17:12:44;5.20;;;3.10;;
76752;SDS011;65687;51.308;16.916;2023-07-13T17:17:47;7.70;;;3.40;;
76752;SDS011;65687;51.308;16.916;2023-07-13T17:22:50;6.30;;;3.50;;
76752;SDS011;65687;51.308;16.916;2023-07-13T17:27:53;5.60;;;3.70;;
76752;SDS011;65687;51.308;16.916;2023-07-13T17:32:54;5.30;;;3.80;;
76752;SDS011;65687;51.308;16.916;2023-07-13T17:37:57;5.40;;;4.20;;
76752;SDS011;65687;51.308;16.916;2023-07-13T17:43:01;4.80;;;3.70;;
76752;SDS011;65687;51.308;16.916;2023-07-13T17:58:08;5.90;;;3.70;;
76752;SDS011;65687;51.308;16.916;2023-07-13T18:03:14;6.50;;;3.40;;
76752;SDS011;65687;51.308;16.916;2023-07-13T18:08:21;3.90;;;3.50;;
76752;SDS011;65687;51.308;16.916;2023-07-13T18:13:25;4.60;;;3.30;;
76752;SDS011;65687;51.308;16.916;2023-07-13T18:18:28;6.70;;;3.30;;
76752;SDS011;65687;51.308;16.916;2023-07-13T18:23:34;3.90;;;3.20;;
76752;SDS011;65687;51.308;16.916;2023-07-13T18:28:36;4.60;;;3.90;;
76752;SDS011;65687;51.308;16.916;2023-07-13T18:33:38;5.30;;;3.60;;
76752;SDS011;65687;51.308;16.916;2023-07-13T18:38:44;5.00;;;3.50;;
76752;SDS011;65687;51.308;16.916;2023-07-13T18:43:46;6.50;;;3.60;;
76752;SDS011;65687;51.308;16.916;2023-07-13T18:48:50;5.70;;;4.30;;
76752;SDS011;65687;51.308;16.916;2023-07-13T18:53:53;8.00;;;4.20;;
76752;SDS011;65687;51.308;16.916;2023-07-13T18:58:55;6.80;;;4.60;;
76752;SDS011;65687;51.308;16.916;2023-07-13T19:03:56;5.10;;;4.40;;
76752;SDS011;65687;51.308;16.916;2023-07-13T19:08:59;5.70;;;4.50;;
76752;SDS011;65687;51.308;16.916;2023-07-13T19:14:00;6.90;;;5.10;;
76752;SDS011;65687;51.308;16.916;2023-07-13T19:19:04;5.90;;;5.10;;
76752;SDS011;65687;51.308;16.916;2023-07-13T19:24:15;5.40;;;3.90;;
76752;SDS011;65687;51.308;16.916;2023-07-13T19:29:21;5.60;;;4.00;;
76752;SDS011;65687;51.308;16.916;2023-07-13T19:34:25;5.80;;;4.40;;
76752;SDS011;65687;51.308;16.916;2023-07-13T19:39:29;5.30;;;4.10;;
76752;SDS011;65687;51.308;16.916;2023-07-13T19:44:35;6.60;;;5.20;;
76752;SDS011;65687;51.308;16.916;2023-07-13T19:49:39;7.50;;;4.70;;
76752;SDS011;65687;51.308;16.916;2023-07-13T19:54:40;4.90;;;4.40;;
76752;SDS011;65687;51.308;16.916;2023-07-13T20:04:46;5.90;;;4.70;;
76752;SDS011;65687;51.308;16.916;2023-07-13T20:09:49;8.20;;;4.90;;
76752;SDS011;65687;51.308;16.916;2023-07-13T20:14:53;5.50;;;5.00;;
76752;SDS011;65687;51.308;16.916;2023-07-13T20:19:55;6.90;;;4.90;;
76752;SDS011;65687;51.308;16.916;2023-07-13T20:24:57;5.80;;;4.90;;
76752;SDS011;65687;51.308;16.916;2023-07-13T20:35:00;7.90;;;5.60;;
76752;SDS011;65687;51.308;16.916;2023-07-13T20:40:05;6.00;;;5.30;;
76752;SDS011;65687;51.308;16.916;2023-07-13T20:45:15;7.00;;;5.20;;
76752;SDS011;65687;51.308;16.916;2023-07-13T20:50:22;6.00;;;4.90;;
76752;SDS011;65687;51.308;16.916;2023-07-13T20:55:26;7.10;;;5.50;;
76752;SDS011;65687;51.308;16.916;2023-07-13T21:00:30;6.00;;;5.40;;
76752;SDS011;65687;51.308;16.916;2023-07-13T21:05:41;7.80;;;4.80;;
76752;SDS011;65687;51.308;16.916;2023-07-13T21:10:43;6.10;;;5.50;;
76752;SDS011;65687;51.308;16.916;2023-07-13T21:15:46;5.30;;;4.70;;
76752;SDS011;65687;51.308;16.916;2023-07-13T21:30:53;5.90;;;4.20;;
76752;SDS011;65687;51.308;16.916;2023-07-13T21:35:58;5.60;;;4.50;;
76752;SDS011;65687;51.308;16.916;2023-07-13T21:41:01;7.50;;;4.90;;
76752;SDS011;65687;51.308;16.916;2023-07-13T21:46:08;5.20;;;4.50;;
76752;SDS011;65687;51.308;16.916;2023-07-13T21:51:19;5.10;;;4.10;;
76752;SDS011;65687;51.308;16.916;2023-07-13T21:56:23;5.90;;;4.70;;
76752;SDS011;65687;51.308;16.916;2023-07-13T22:01:27;5.30;;;4.50;;
76752;SDS011;65687;51.308;16.916;2023-07-13T22:06:34;4.60;;;4.20;;
76752;SDS011;65687;51.308;16.916;2023-07-13T22:11:35;6.40;;;4.70;;
76752;SDS011;65687;51.308;16.916;2023-07-13T22:16:37;4.50;;;3.90;;
76752;SDS011;65687;51.308;16.916;2023-07-13T22:21:38;6.20;;;4.20;;
76752;SDS011;65687;51.308;16.916;2023-07-13T22:26:40;5.40;;;3.70;;
76752;SDS011;65687;51.308;16.916;2023-07-13T22:31:43;4.80;;;4.30;;
76752;SDS011;65687;51.308;16.916;2023-07-13T22:36:46;7.10;;;4.90;;
76752;SDS011;65687;51.308;16.916;2023-07-13T22:41:48;4.00;;;3.30;;
76752;SDS011;65687;51.308;16.916;2023-07-13T22:46:50;4.70;;;3.80;;
76752;SDS011;65687;51.308;16.916;2023-07-13T22:51:55;6.10;;;3.90;;
76752;SDS011;65687;51.308;16.916;2023-07-13T22:56:58;4.90;;;4.20;;
76752;SDS011;65687;51.308;16.916;2023-07-13T23:02:00;5.80;;;4.60;;
76752;SDS011;65687;51.308;16.916;2023-07-13T23:07:04;4.70;;;4.00;;
76752;SDS011;65687;51.308;16.916;2023-07-13T23:12:07;6.30;;;4.40;;
76752;SDS011;65687;51.308;16.916;2023-07-13T23:17:11;7.00;;;4.40;;
76752;SDS011;65687;51.308;16.916;2023-07-13T23:22:22;7.60;;;4.60;;
76752;SDS011;65687;51.308;16.916;2023-07-13T23:27:27;5.50;;;4.40;;
76752;SDS011;65687;51.308;16.916;2023-07-13T23:32:28;7.40;;;5.00;;
76752;SDS011;65687;51.308;16.916;2023-07-13T23:37:30;5.30;;;4.80;;
76752;SDS011;65687;51.308;16.916;2023-07-13T23:42:31;7.80;;;5.20;;
76752;SDS011;65687;51.308;16.916;2023-07-13T23:47:33;6.00;;;5.40;;
76752;SDS011;65687;51.308;16.916;2023-07-13T23:52:35;6.20;;;5.50;;
76752;SDS011;65687;51.308;16.916;2023-07-13T23:57:37;6.60;;;5.00;;
